Time;durP1;ratioP1;P1;durP2;ratioP2;P2;SDS_P1;SDS_P2;PMS_P1;PMS_P2;Temp;Humidity;BMP_temperature;BMP_pressure;BME280_temperature;BME280_humidity;BME280_pressure;Samples;Min_cycle;Max_cycle;Signal;HPM_P1;HPM_P2
2022/07/17 00:00:42;;;;;;;;;;;;;;;19.98;44.77;100652.69;1088362;54;19950;-85
2022/07/17 00:01:46;;;;;;;;;;;;;;;19.98;44.93;100658.13;1088375;54;19949;-85
2022/07/17 00:02:47;;;;;;;;;;;;;;;19.97;44.60;100656.44;1088426;54;19942;-84
2022/07/17 00:03:51;;;;;;;;;;;;;;;19.93;45.18;100660.59;1088417;54;19949;-85
2022/07/17 00:04:52;;;;;;;;;;;;;;;19.92;45.11;100661.63;1088350;54;19949;-81
2022/07/17 00:05:56;;;;;;;;;;;;;;;19.87;45.09;100667.59;1087930;54;19942;-85
2022/07/17 00:06:57;;;;;;;;;;;;;;;19.80;45.64;100667.50;1088357;46;19965;-85
2022/07/17 00:08:01;;;;;;;;;;;;;;;19.79;45.36;100662.25;1088194;54;19943;-83
2022/07/17 00:09:02;;;;;;;;;;;;;;;19.72;45.80;100659.47;1088323;54;19938;-85
2022/07/17 00:10:07;;;;;;;;;;;;;;;19.71;45.49;100660.50;1088445;54;19934;-84
2022/07/17 00:11:08;;;;;;;;;;;;;;;19.67;45.89;100653.75;1088929;46;19943;-82
2022/07/17 00:12:13;;;;;;;;;;;;;;;19.66;45.91;100660.22;1088451;54;20042;-84
2022/07/17 00:13:14;;;;;;;;;;;;;;;19.68;45.42;100660.03;1088430;46;19995;-82
2022/07/17 00:14:20;;;;;;;;;;;;;;;19.63;45.80;100666.03;1093233;39;20553;-83
2022/07/17 00:15:22;;;;;;;;;;;;;;;19.62;45.96;100664.34;1088429;54;19927;-84
2022/07/17 00:16:26;;;;;;;;;;;;;;;19.59;45.80;100662.00;1088320;54;19946;-84
2022/07/17 00:17:27;;;;;;;;;;;;;;;19.55;46.07;100658.84;1090584;46;19942;-84
2022/07/17 01:11:06;;;;;;;;;;;;;;;17.95;51.24;100678.72;1087727;54;21529;-85
2022/07/17 01:12:22;;;;;;;;;;;;;;;17.91;51.22;100676.34;1088506;54;19965;-85
2022/07/17 01:13:25;;;;;;;;;;;;;;;17.86;51.48;100676.03;1088421;54;19950;-84
2022/07/17 01:14:27;;;;;;;;;;;;;;;17.85;51.53;100676.22;1088474;54;19950;-85
2022/07/17 01:15:31;;;;;;;;;;;;;;;17.92;50.81;100674.47;1089322;31;20617;-83
2022/07/17 01:16:32;;;;;;;;;;;;;;;17.91;51.00;100681.75;1088129;54;19926;-84
2022/07/17 01:17:36;;;;;;;;;;;;;;;17.91;50.94;100679.06;1088088;54;19943;-84
2022/07/17 01:18:37;;;;;;;;;;;;;;;17.96;50.87;100678.56;1088193;54;19923;-82
2022/07/17 01:19:42;;;;;;;;;;;;;;;17.97;51.09;100684.78;1088497;54;19926;-84
2022/07/17 01:20:44;;;;;;;;;;;;;;;18.00;50.81;100682.56;1088448;54;19951;-83
2022/07/17 01:21:52;;;;;;;;;;;;;;;18.01;50.60;100680.72;1089724;46;20034;-84
2022/07/17 01:22:53;;;;;;;;;;;;;;;18.03;50.27;100686.81;1088485;54;19946;-85
2022/07/17 01:23:57;;;;;;;;;;;;;;;18.03;50.31;100682.22;1088449;54;19997;-85
2022/07/17 01:24:58;;;;;;;;;;;;;;;18.03;50.24;100686.81;1088431;54;19942;-83
2022/07/17 01:26:02;;;;;;;;;;;;;;;18.02;50.49;100680.53;1088358;54;19927;-84
2022/07/17 01:27:03;;;;;;;;;;;;;;;18.00;50.67;100682.56;1088456;54;20243;-84
2022/07/17 01:28:08;;;;;;;;;;;;;;;17.96;50.69;100680.38;1088397;54;19950;-84
2022/07/17 01:29:10;;;;;;;;;;;;;;;17.92;50.88;100683.44;1088331;54;19942;-84
2022/07/17 01:30:14;;;;;;;;;;;;;;;17.96;50.75;100683.06;1088401;54;19943;-84
2022/07/17 01:31:15;;;;;;;;;;;;;;;17.98;50.67;100681.06;1088311;54;19935;-84
2022/07/17 01:32:19;;;;;;;;;;;;;;;17.97;50.71;100679.38;1088299;54;19957;-84
2022/07/17 01:33:21;;;;;;;;;;;;;;;17.98;50.33;100678.38;1088452;54;19938;-85
2022/07/17 01:34:25;;;;;;;;;;;;;;;18.03;50.09;100681.41;1088047;54;19939;-84
2022/07/17 01:35:26;;;;;;;;;;;;;;;18.06;50.01;100689.13;1088003;54;19966;-84
2022/07/17 01:36:30;;;;;;;;;;;;;;;18.04;50.55;100685.78;1088232;54;19946;-84
2022/07/17 01:37:34;;;;;;;;;;;;;;;18.05;50.22;100682.91;1088445;54;19927;-85
2022/07/17 01:38:37;;;;;;;;;;;;;;;17.99;50.40;100686.31;1088344;54;19926;-83
2022/07/17 01:40:57;;;;;;;;;;;;;;;18.02;49.85;100685.94;1088452;54;19918;-85
2022/07/17 01:42:00;;;;;;;;;;;;;;;18.07;49.82;100682.72;1105360;31;20609;-84
2022/07/17 01:43:03;;;;;;;;;;;;;;;18.09;49.89;100686.09;1092818;31;20499;-84
2022/07/17 01:44:08;;;;;;;;;;;;;;;18.08;50.00;100684.41;1088490;54;19943;-82
2022/07/17 01:45:12;;;;;;;;;;;;;;;17.99;49.78;100680.91;1088391;54;19933;-84
2022/07/17 01:46:13;;;;;;;;;;;;;;;17.99;50.00;100685.47;1088443;54;19949;-84
2022/07/17 01:47:17;;;;;;;;;;;;;;;17.92;50.19;100683.44;1088538;54;19935;-84
2022/07/17 01:48:25;;;;;;;;;;;;;;;17.89;50.03;100683.78;1088655;54;19945;-84
2022/07/17 01:49:29;;;;;;;;;;;;;;;17.96;49.62;100677.66;1089743;47;19954;-85
2022/07/17 01:50:33;;;;;;;;;;;;;;;18.00;49.70;100681.75;1091646;47;19933;-85
2022/07/17 01:51:34;;;;;;;;;;;;;;;18.04;49.29;100683.91;1088566;54;19934;-83
2022/07/17 01:52:41;;;;;;;;;;;;;;;18.04;49.39;100683.09;1094379;46;19923;-85
2022/07/17 01:53:42;;;;;;;;;;;;;;;18.04;49.18;100683.09;1088344;54;19942;-85
2022/07/17 01:54:46;;;;;;;;;;;;;;;18.08;49.43;100681.69;1089103;47;19946;-83
2022/07/17 01:55:50;;;;;;;;;;;;;;;18.09;48.96;100686.09;1093282;47;19923;-83
2022/07/17 01:56:57;;;;;;;;;;;;;;;18.14;48.85;100688.25;1093483;47;19930;-84
2022/07/17 01:58:00;;;;;;;;;;;;;;;18.16;48.64;100681.63;1088623;47;19942;-84
2022/07/17 01:59:03;;;;;;;;;;;;;;;18.08;49.49;100681.69;1091592;47;19922;-85
2022/07/17 02:00:08;;;;;;;;;;;;;;;18.01;49.03;100684.25;1088472;54;19933;-84
2022/07/17 02:01:09;;;;;;;;;;;;;;;17.91;49.45;100689.88;1088328;54;19943;-85
2022/07/17 02:02:15;;;;;;;;;;;;;;;17.84;50.08;100688.06;1088451;54;19946;-84
2022/07/17 02:03:16;;;;;;;;;;;;;;;17.85;50.04;100681.63;1088325;54;19937;-84
2022/07/17 02:04:20;;;;;;;;;;;;;;;17.83;49.90;100687.22;1089145;47;19927;-83
2022/07/17 02:05:22;;;;;;;;;;;;;;;17.86;49.92;100681.44;1089556;47;20912;-84
2022/07/17 02:06:26;;;;;;;;;;;;;;;17.88;49.43;100679.41;1092146;46;19943;-84
2022/07/17 02:07:27;;;;;;;;;;;;;;;17.93;49.43;100682.44;1091427;47;19949;-83
2022/07/17 02:08:34;;;;;;;;;;;;;;;17.96;49.18;100681.25;1088452;47;19939;-83
2022/07/17 02:09:35;;;;;;;;;;;;;;;17.96;48.97;100683.06;1087965;54;19939;-82
2022/07/17 02:10:39;;;;;;;;;;;;;;;18.00;49.03;100682.56;1087869;54;19989;-83
2022/07/17 02:11:40;;;;;;;;;;;;;;;18.03;49.32;100684.09;1087999;47;20672;-83
2022/07/17 02:12:44;;;;;;;;;;;;;;;18.00;49.18;100684.44;1088292;54;19934;-81
2022/07/17 02:13:45;;;;;;;;;;;;;;;17.99;49.27;100680.91;1088077;54;19927;-82
2022/07/17 02:14:49;;;;;;;;;;;;;;;18.00;49.01;100684.44;1092367;46;19958;-83
2022/07/17 02:15:50;;;;;;;;;;;;;;;17.97;49.20;100687.50;1088237;54;19939;-81
2022/07/17 02:16:54;;;;;;;;;;;;;;;17.96;48.84;100683.06;1088255;54;19950;-83
2022/07/17 02:17:55;;;;;;;;;;;;;;;17.93;49.35;100690.56;1088285;54;19942;-84
2022/07/17 02:18:59;;;;;;;;;;;;;;;17.86;49.46;100691.44;1088342;47;20022;-82
2022/07/17 02:20:00;;;;;;;;;;;;;;;17.88;48.87;100689.41;1088253;54;19923;-83
2022/07/17 02:21:04;;;;;;;;;;;;;;;17.87;48.88;100682.28;1088596;54;19942;-82
2022/07/17 02:22:06;;;;;;;;;;;;;;;17.81;49.29;100683.84;1088580;54;19943;-82
2022/07/17 02:23:10;;;;;;;;;;;;;;;17.76;49.31;100686.22;1088598;54;19951;-82
2022/07/17 02:24:13;;;;;;;;;;;;;;;17.64;49.65;100682.25;1088554;54;19950;-83
2022/07/17 02:25:17;;;;;;;;;;;;;;;17.68;49.47;100689.81;1088558;54;19998;-83
2022/07/17 02:26:18;;;;;;;;;;;;;;;17.71;49.28;100677.81;1088809;46;19950;-81
2022/07/17 02:27:22;;;;;;;;;;;;;;;17.67;49.96;100681.88;1090625;46;19982;-81
2022/07/17 02:28:24;;;;;;;;;;;;;;;17.60;50.02;100679.88;1088227;54;19965;-83
2022/07/17 02:29:27;;;;;;;;;;;;;;;17.54;50.08;100677.03;1088178;54;19938;-82
2022/07/17 02:30:28;;;;;;;;;;;;;;;17.51;49.68;100682.81;1088411;54;19934;-83
2022/07/17 02:31:32;;;;;;;;;;;;;;;17.55;49.55;100676.88;1088534;54;19942;-83
2022/07/17 02:32:33;;;;;;;;;;;;;;;17.56;49.56;100675.88;1094378;46;19980;-84
2022/07/17 02:33:37;;;;;;;;;;;;;;;17.56;49.83;100673.16;1088604;54;19923;-82
2022/07/17 02:34:38;;;;;;;;;;;;;;;17.59;49.80;100675.50;1088601;54;19982;-83
2022/07/17 02:35:42;;;;;;;;;;;;;;;17.60;49.47;100674.47;1088666;54;19939;-82
2022/07/17 02:36:43;;;;;;;;;;;;;;;17.55;49.66;100673.31;1088593;54;19945;-83
2022/07/17 02:37:47;;;;;;;;;;;;;;;17.62;49.15;100675.16;1088622;54;19930;-83
2022/07/17 02:38:48;;;;;;;;;;;;;;;17.66;49.49;100667.53;1088626;54;19930;-82
2022/07/17 02:39:55;;;;;;;;;;;;;;;17.65;49.46;100670.41;1088712;54;19994;-81
2022/07/17 02:40:56;;;;;;;;;;;;;;;17.67;49.46;100671.06;1092021;46;19961;-82
2022/07/17 02:42:00;;;;;;;;;;;;;;;17.67;49.52;100673.75;1088738;54;19922;-84
2022/07/17 02:43:01;;;;;;;;;;;;;;;17.69;49.67;100669.03;1091756;46;19927;-82
2022/07/17 02:44:05;;;;;;;;;;;;;;;17.68;49.61;100665.50;1091725;46;19978;-83
2022/07/17 02:45:07;;;;;;;;;;;;;;;17.69;49.68;100664.47;1090750;46;19927;-81
2022/07/17 02:46:13;;;;;;;;;;;;;;;17.73;49.49;100659.56;1088688;54;19945;-83
2022/07/17 02:47:20;;;;;;;;;;;;;;;17.74;49.51;100658.53;1090379;46;19945;-84
2022/07/17 02:48:24;;;;;;;;;;;;;;;17.74;49.18;100667.47;1090192;46;19995;-84
2022/07/17 02:49:25;;;;;;;;;;;;;;;17.78;49.46;100667.97;1091932;46;19942;-84
2022/07/17 02:50:28;;;;;;;;;;;;;;;17.80;49.39;100667.81;1097732;46;19927;-82
2022/07/17 02:51:30;;;;;;;;;;;;;;;17.74;49.32;100663.94;1088905;54;20006;-82
2022/07/17 02:52:33;;;;;;;;;;;;;;;17.69;49.99;100663.63;1090535;46;19923;-84
2022/07/17 02:53:34;;;;;;;;;;;;;;;17.68;49.94;100661.94;1091479;46;19926;-83
2022/07/17 02:54:38;;;;;;;;;;;;;;;17.64;49.68;100666.84;1090154;46;19966;-81
2022/07/17 02:55:42;;;;;;;;;;;;;;;17.60;50.00;100674.47;1088908;54;19998;-83
2022/07/17 02:56:46;;;;;;;;;;;;;;;17.59;49.92;100667.38;1088855;54;19986;-83
2022/07/17 02:57:47;;;;;;;;;;;;;;;17.60;49.93;100668.25;1091988;46;19942;-81
2022/07/17 02:58:51;;;;;;;;;;;;;;;17.57;49.68;100666.72;1096821;46;19975;-83
2022/07/17 02:59:52;;;;;;;;;;;;;;;17.58;49.91;100668.41;1088705;54;19942;-83
2022/07/17 03:00:56;;;;;;;;;;;;;;;17.55;49.94;100668.78;1088697;54;19943;-83
2022/07/17 03:01:57;;;;;;;;;;;;;;;17.58;49.86;100668.41;1088714;54;19931;-84
2022/07/17 03:03:01;;;;;;;;;;;;;;;17.52;49.93;100666.41;1088383;54;19967;-85
2022/07/17 03:04:02;;;;;;;;;;;;;;;17.53;49.67;100670.78;1088341;54;19939;-84
2022/07/17 03:05:06;;;;;;;;;;;;;;;17.50;50.04;100673.84;1088489;54;19942;-83
2022/07/17 03:06:10;;;;;;;;;;;;;;;17.44;49.93;100663.75;1088581;54;20598;-83
2022/07/17 03:07:11;;;;;;;;;;;;;;;17.42;50.14;100665.78;1088674;54;19973;-82
2022/07/17 03:08:15;;;;;;;;;;;;;;;17.42;50.18;100668.47;1088507;54;19950;-83
2022/07/17 03:09:16;;;;;;;;;;;;;;;17.43;50.15;100670.97;1088575;54;19937;-83
2022/07/17 03:10:20;;;;;;;;;;;;;;;17.31;50.43;100669.69;1088548;54;19993;-85
2022/07/17 03:11:31;;;;;;;;;;;;;;;17.28;50.45;100667.34;1088443;54;19943;-84
2022/07/17 03:12:48;;;;;;;;;;;;;;;17.17;51.15;100675.81;1088594;54;19973;-84
2022/07/17 03:13:57;;;;;;;;;;;;;;;17.09;51.04;100663.19;1088371;54;19946;-82
2022/07/17 03:15:02;;;;;;;;;;;;;;;17.05;51.36;100675.34;1088469;54;19946;-83
2022/07/17 03:16:04;;;;;;;;;;;;;;;17.04;51.14;100670.94;1088550;54;19942;-83
2022/07/17 03:17:08;;;;;;;;;;;;;;;16.97;51.51;100676.19;1088482;54;19996;-85
2022/07/17 03:18:09;;;;;;;;;;;;;;;16.92;51.29;100673.13;1095582;39;20130;-81
2022/07/17 03:19:13;;;;;;;;;;;;;;;16.86;51.52;100669.25;1088431;54;19973;-86
2022/07/17 03:20:14;;;;;;;;;;;;;;;16.83;51.47;100677.69;1088329;54;19950;-82
2022/07/17 03:21:18;;;;;;;;;;;;;;;16.75;52.06;100673.16;1088037;54;20011;-86
2022/07/17 03:22:19;;;;;;;;;;;;;;;16.72;52.41;100678.06;1088103;54;19938;-81
2022/07/17 03:23:23;;;;;;;;;;;;;;;16.68;52.01;100683.78;1089902;46;19949;-82
2022/07/17 03:24:24;;;;;;;;;;;;;;;16.66;52.07;100675.00;1088518;54;19942;-84
2022/07/17 03:25:28;;;;;;;;;;;;;;;16.71;52.18;100670.97;1088563;54;19954;-82
2022/07/17 03:26:31;;;;;;;;;;;;;;;16.65;52.25;100669.78;1088428;54;19950;-83
2022/07/17 03:27:35;;;;;;;;;;;;;;;16.65;52.27;100683.28;1088532;54;20049;-83
2022/07/17 03:28:36;;;;;;;;;;;;;;;16.64;52.25;100684.28;1090257;46;19946;-83
2022/07/17 03:29:40;;;;;;;;;;;;;;;16.66;52.03;100685.81;1092246;46;19970;-83
2022/07/17 03:30:41;;;;;;;;;;;;;;;16.64;52.34;100687.81;1088468;54;19966;-83
2022/07/17 03:31:45;;;;;;;;;;;;;;;16.64;52.17;100687.00;1088393;54;19981;-82
2022/07/17 03:32:46;;;;;;;;;;;;;;;16.57;52.56;100680.59;1088385;54;19943;-82
2022/07/17 03:33:50;;;;;;;;;;;;;;;16.49;53.00;100676.03;1088485;54;19950;-82
2022/07/17 03:34:51;;;;;;;;;;;;;;;16.52;52.46;100681.94;1088429;54;20264;-84
2022/07/17 03:35:55;;;;;;;;;;;;;;;16.54;52.85;100681.75;1088488;54;19949;-82
2022/07/17 03:36:59;;;;;;;;;;;;;;;16.52;52.68;100676.53;1088449;54;19931;-82
2022/07/17 03:38:03;;;;;;;;;;;;;;;16.48;53.15;100677.03;1090411;46;20688;-83
2022/07/17 03:39:04;;;;;;;;;;;;;;;16.50;52.82;100681.25;1088034;54;19949;-83
2022/07/17 03:40:09;;;;;;;;;;;;;;;16.54;52.48;100681.75;1088034;54;19985;-83
2022/07/17 03:41:10;;;;;;;;;;;;;;;16.54;52.42;100681.75;1088464;54;19938;-81
2022/07/17 03:42:17;;;;;;;;;;;;;;;16.53;52.51;100678.22;1088463;54;19950;-83
2022/07/17 03:43:18;;;;;;;;;;;;;;;16.52;52.30;100673.84;1088495;54;20404;-82
2022/07/17 03:44:22;;;;;;;;;;;;;;;16.54;52.54;100676.34;1088405;54;20034;-81
2022/07/17 03:45:23;;;;;;;;;;;;;;;16.53;52.51;100677.38;1088468;54;19942;-85
2022/07/17 03:46:27;;;;;;;;;;;;;;;16.50;52.71;100680.41;1088823;39;20573;-84
2022/07/17 03:47:28;;;;;;;;;;;;;;;16.36;53.11;100680.06;1088474;54;19942;-82
2022/07/17 03:48:34;;;;;;;;;;;;;;;16.38;53.15;100683.44;1088506;54;19943;-83
2022/07/17 03:49:35;;;;;;;;;;;;;;;16.34;53.19;100676.69;1088461;54;19954;-84
2022/07/17 03:50:38;;;;;;;;;;;;;;;16.35;52.84;100680.25;1088503;54;19950;-84
2022/07/17 03:51:40;;;;;;;;;;;;;;;16.35;52.99;100672.97;1088409;54;19973;-84
2022/07/17 03:52:43;;;;;;;;;;;;;;;16.38;52.57;100677.22;1090333;46;20002;-84
2022/07/17 03:53:45;;;;;;;;;;;;;;;16.41;52.52;100679.56;1089072;46;19943;-85
2022/07/17 03:54:48;;;;;;;;;;;;;;;16.38;52.67;100678.03;1088461;54;19943;-83
2022/07/17 03:55:50;;;;;;;;;;;;;;;16.44;52.34;100681.94;1088291;54;19950;-83
2022/07/17 03:56:53;;;;;;;;;;;;;;;16.44;52.53;100675.69;1088056;54;19942;-83
2022/07/17 03:57:57;;;;;;;;;;;;;;;16.45;52.41;100677.38;1088069;54;19949;-85
2022/07/17 03:59:01;;;;;;;;;;;;;;;16.49;52.02;100684.94;1088468;54;19949;-83
2022/07/17 04:00:03;;;;;;;;;;;;;;;16.56;51.72;100678.91;1088470;54;19950;-82
2022/07/17 04:01:07;;;;;;;;;;;;;;;16.53;51.61;100670.13;1088521;54;19942;-84
2022/07/17 04:02:08;;;;;;;;;;;;;;;16.60;51.64;100672.13;1088328;54;19943;-83
2022/07/17 04:03:12;;;;;;;;;;;;;;;16.62;51.41;100679.06;1088489;54;19954;-84
2022/07/17 04:04:13;;;;;;;;;;;;;;;16.63;51.48;100679.91;1088484;54;19949;-83
2022/07/17 04:05:16;;;;;;;;;;;;;;;16.66;51.53;100680.41;1088412;54;20002;-84
2022/07/17 04:06:18;;;;;;;;;;;;;;;16.66;51.22;100685.81;1088453;54;19942;-84
2022/07/17 04:07:31;;;;;;;;;;;;;;;16.70;50.95;100686.31;1091392;46;19950;-84
2022/07/17 04:08:32;;;;;;;;;;;;;;;16.69;51.47;100684.63;1088535;54;19927;-83
2022/07/17 04:09:36;;;;;;;;;;;;;;;16.71;51.38;100681.78;1089760;46;19978;-83
2022/07/17 04:10:37;;;;;;;;;;;;;;;16.68;51.19;100678.38;1088456;54;20019;-84
2022/07/17 04:11:40;;;;;;;;;;;;;;;16.65;51.73;100684.13;1088375;54;19943;-84
2022/07/17 04:12:42;;;;;;;;;;;;;;;16.66;51.03;100684.97;1088820;39;20537;-85
2022/07/17 04:13:48;;;;;;;;;;;;;;;16.66;51.31;100684.97;1088185;54;19942;-84
2022/07/17 04:14:49;;;;;;;;;;;;;;;16.62;51.29;100687.19;1088019;54;19965;-83
2022/07/17 04:15:55;;;;;;;;;;;;;;;16.63;51.05;100691.53;1088131;54;19998;-84
2022/07/17 04:16:57;;;;;;;;;;;;;;;16.62;51.10;100686.31;1088360;54;19966;-84
2022/07/17 04:18:00;;;;;;;;;;;;;;;16.60;51.47;100691.03;1088480;54;19942;-84
2022/07/17 04:19:02;;;;;;;;;;;;;;;16.59;51.61;100686.66;1089392;46;19923;-84
2022/07/17 04:20:06;;;;;;;;;;;;;;;16.54;51.76;100692.53;1088453;54;19942;-81
2022/07/17 04:21:08;;;;;;;;;;;;;;;16.54;51.68;100689.84;1088431;54;19973;-82
2022/07/17 04:22:12;;;;;;;;;;;;;;;16.51;51.87;100690.19;1091132;46;19950;-84
2022/07/17 04:23:13;;;;;;;;;;;;;;;16.55;51.57;100688.84;1088435;54;19948;-83
2022/07/17 04:24:17;;;;;;;;;;;;;;;16.53;51.50;100683.63;1088444;54;20240;-81
2022/07/17 04:25:18;;;;;;;;;;;;;;;16.45;51.69;100696.25;1089410;46;19934;-83
2022/07/17 04:26:22;;;;;;;;;;;;;;;16.40;52.12;100699.44;1092004;46;19939;-83
2022/07/17 04:27:23;;;;;;;;;;;;;;;16.45;51.68;100693.56;1088479;54;19942;-82
2022/07/17 04:28:27;;;;;;;;;;;;;;;16.42;51.92;100693.91;1089334;46;19966;-83
2022/07/17 04:29:30;;;;;;;;;;;;;;;16.35;51.90;100699.13;1088378;54;19986;-84
2022/07/17 04:30:34;;;;;;;;;;;;;;;16.38;51.97;100699.63;1088477;54;19966;-81
2022/07/17 04:31:35;;;;;;;;;;;;;;;16.45;51.46;100709.75;1088004;54;20263;-81
2022/07/17 04:32:39;;;;;;;;;;;;;;;16.48;51.62;100706.72;1088105;54;19995;-84
2022/07/17 04:33:40;;;;;;;;;;;;;;;16.50;51.33;100699.31;1088117;54;19935;-82
2022/07/17 04:34:44;;;;;;;;;;;;;;;16.52;51.21;100706.22;1088431;54;20077;-82
2022/07/17 04:35:45;;;;;;;;;;;;;;;16.53;51.12;100710.59;1088290;54;19973;-82
2022/07/17 04:36:49;;;;;;;;;;;;;;;16.57;51.22;100704.88;1088359;54;19927;-83
2022/07/17 04:37:51;;;;;;;;;;;;;;;16.60;51.32;100704.53;1088491;54;19934;-82
2022/07/17 04:38:54;;;;;;;;;;;;;;;16.61;50.85;100704.38;1088387;54;19960;-82
2022/07/17 04:39:55;;;;;;;;;;;;;;;16.65;50.81;100710.28;1088435;54;19943;-84
2022/07/17 04:40:59;;;;;;;;;;;;;;;16.66;50.78;100701.16;1090918;39;20490;-82
2022/07/17 04:42:01;;;;;;;;;;;;;;;16.70;50.88;100707.91;1088368;54;19927;-82
2022/07/17 04:43:05;;;;;;;;;;;;;;;16.69;51.08;100712.47;1088428;54;19943;-83
2022/07/17 04:44:06;;;;;;;;;;;;;;;16.73;51.01;100712.13;1088063;54;19943;-83
2022/07/17 04:45:13;;;;;;;;;;;;;;;16.69;50.91;100707.06;1088459;54;19949;-82
2022/07/17 04:46:15;;;;;;;;;;;;;;;16.67;51.18;100708.25;1088445;54;20558;-82
2022/07/17 04:47:18;;;;;;;;;;;;;;;16.69;50.82;100712.47;1088378;54;19942;-82
2022/07/17 04:48:19;;;;;;;;;;;;;;;16.69;51.07;100715.16;1088391;54;19966;-83
2022/07/17 04:49:23;;;;;;;;;;;;;;;16.71;51.09;100714.16;1087987;54;19931;-83
2022/07/17 04:50:24;;;;;;;;;;;;;;;16.71;50.97;100719.56;1088029;54;19939;-83
2022/07/17 04:51:28;;;;;;;;;;;;;;;16.74;50.99;100714.66;1088051;54;20758;-83
2022/07/17 04:52:30;;;;;;;;;;;;;;;16.71;51.49;100714.16;1097608;39;20585;-82
2022/07/17 04:53:35;;;;;;;;;;;;;;;16.73;51.24;100717.50;1088410;54;19927;-83
2022/07/17 04:54:36;;;;;;;;;;;;;;;16.77;50.96;100710.78;1088423;54;20004;-83
2022/07/17 04:55:40;;;;;;;;;;;;;;;16.68;51.57;100710.78;1088363;54;19933;-83
2022/07/17 04:56:41;;;;;;;;;;;;;;;16.63;51.73;100707.72;1088315;54;19923;-84
2022/07/17 04:57:45;;;;;;;;;;;;;;;16.63;51.57;100706.91;1088369;54;19942;-82
2022/07/17 04:58:46;;;;;;;;;;;;;;;16.56;51.76;100703.19;1088255;54;20593;-83
2022/07/17 04:59:50;;;;;;;;;;;;;;;16.49;51.85;100705.72;1088405;54;19927;-81
2022/07/17 05:00:57;;;;;;;;;;;;;;;16.38;51.48;100705.03;1089811;46;19934;-83
2022/07/17 05:01:58;;;;;;;;;;;;;;;16.36;51.74;100708.91;1088374;54;19934;-86
2022/07/17 05:03:02;;;;;;;;;;;;;;;16.27;52.07;100710.72;1088778;39;20684;-81
2022/07/17 05:04:04;;;;;;;;;;;;;;;16.28;52.27;100711.59;1088369;54;19950;-83
2022/07/17 05:05:08;;;;;;;;;;;;;;;16.26;52.41;100717.13;1090803;46;19948;-84
2022/07/17 05:06:09;;;;;;;;;;;;;;;16.26;52.10;100711.75;1090778;46;19954;-83
2022/07/17 05:07:13;;;;;;;;;;;;;;;16.30;51.88;100707.72;1087862;54;19942;-83
2022/07/17 05:08:14;;;;;;;;;;;;;;;16.32;52.02;100710.22;1087932;54;19965;-82
2022/07/17 05:09:18;;;;;;;;;;;;;;;16.33;52.21;100706.53;1088061;54;19946;-83
2022/07/17 05:10:19;;;;;;;;;;;;;;;16.26;52.24;100710.91;1088314;54;19965;-81
2022/07/17 05:11:23;;;;;;;;;;;;;;;16.26;52.21;100711.75;1088242;54;19949;-81
2022/07/17 05:12:25;;;;;;;;;;;;;;;16.27;51.92;100715.31;1088373;54;19943;-82
2022/07/17 05:13:28;;;;;;;;;;;;;;;16.27;52.08;100696.41;1088215;54;20604;-82
2022/07/17 05:14:30;;;;;;;;;;;;;;;16.26;51.95;100714.44;1088301;54;19927;-82
2022/07/17 05:15:33;;;;;;;;;;;;;;;16.30;51.22;100710.41;1088336;54;19949;-84
2022/07/17 05:16:37;;;;;;;;;;;;;;;16.40;51.51;100704.03;1088321;54;19927;-82
2022/07/17 05:17:41;;;;;;;;;;;;;;;16.51;51.50;100709.09;1088332;54;19950;-85
2022/07/17 05:18:43;;;;;;;;;;;;;;;16.64;51.15;100706.72;1088310;54;19942;-82
2022/07/17 05:19:47;;;;;;;;;;;;;;;16.74;50.91;100703.00;1088345;54;19933;-83
2022/07/17 05:20:48;;;;;;;;;;;;;;;16.81;50.56;100704.03;1088273;54;20535;-85
2022/07/17 05:21:52;;;;;;;;;;;;;;;16.88;50.52;100702.34;1088307;54;20019;-85
2022/07/17 05:22:56;;;;;;;;;;;;;;;16.95;50.31;100695.25;1088332;54;19943;-83
2022/07/17 05:23:57;;;;;;;;;;;;;;;17.02;49.83;100697.28;1088340;54;19965;-83
2022/07/17 05:25:01;;;;;;;;;;;;;;;17.08;49.71;100696.59;1087875;54;20879;-83
2022/07/17 05:26:02;;;;;;;;;;;;;;;17.07;49.75;100700.31;1087987;54;19958;-82
2022/07/17 05:27:06;;;;;;;;;;;;;;;17.01;49.33;100696.44;1088044;54;20026;-82
2022/07/17 05:28:07;;;;;;;;;;;;;;;17.00;49.60;100703.69;1088435;47;19994;-82
2022/07/17 05:29:11;;;;;;;;;;;;;;;17.00;49.43;100702.84;1089779;39;20613;-82
2022/07/17 05:30:12;;;;;;;;;;;;;;;17.02;49.01;100698.13;1089282;46;19939;-83
2022/07/17 05:31:16;;;;;;;;;;;;;;;17.07;48.95;100703.03;1088323;54;19947;-82
2022/07/17 05:32:20;;;;;;;;;;;;;;;17.08;48.98;100702.00;1088178;54;19949;-83
2022/07/17 05:33:24;;;;;;;;;;;;;;;17.02;48.99;100708.06;1088266;54;19965;-84
2022/07/17 05:34:25;;;;;;;;;;;;;;;17.08;48.77;100705.53;1088320;54;19943;-82
2022/07/17 05:35:30;;;;;;;;;;;;;;;17.05;48.99;100700.47;1088257;54;19942;-83
2022/07/17 05:36:31;;;;;;;;;;;;;;;17.06;49.30;100706.72;1088295;54;20007;-83
2022/07/17 05:37:35;;;;;;;;;;;;;;;17.13;48.99;100705.03;1088346;54;19942;-84
2022/07/17 05:38:37;;;;;;;;;;;;;;;17.14;49.20;100707.53;1088281;54;19950;-83
2022/07/17 05:39:41;;;;;;;;;;;;;;;17.22;49.13;100704.00;1090789;39;20479;-84
2022/07/17 05:40:42;;;;;;;;;;;;;;;17.24;49.32;100703.84;1088280;54;20007;-84
2022/07/17 05:41:46;;;;;;;;;;;;;;;17.26;49.20;100704.47;1088194;47;20924;-82
2022/07/17 05:42:47;;;;;;;;;;;;;;;17.24;49.05;100714.66;1087880;54;19949;-81
2022/07/17 05:43:51;;;;;;;;;;;;;;;17.22;49.25;100712.09;1087874;54;19943;-82
2022/07/17 05:44:52;;;;;;;;;;;;;;;17.21;49.12;100713.09;1088088;54;19974;-83
2022/07/17 05:45:56;;;;;;;;;;;;;;;17.25;48.99;100706.34;1088257;54;19949;-82
2022/07/17 05:46:57;;;;;;;;;;;;;;;17.22;49.05;100706.69;1088282;54;19934;-82
2022/07/17 05:48:03;;;;;;;;;;;;;;;17.21;49.14;100713.09;1088265;54;19942;-82
2022/07/17 05:49:05;;;;;;;;;;;;;;;17.23;48.82;100715.66;1088299;54;19945;-83
2022/07/17 05:50:09;;;;;;;;;;;;;;;17.25;48.92;100711.75;1088258;54;19990;-83
2022/07/17 05:51:10;;;;;;;;;;;;;;;17.26;48.61;100715.28;1088280;54;19942;-84
2022/07/17 05:52:14;;;;;;;;;;;;;;;17.33;48.77;100715.44;1088230;54;19969;-81
2022/07/17 05:53:15;;;;;;;;;;;;;;;17.33;48.23;100719.00;1088247;54;19965;-80
2022/07/17 05:54:19;;;;;;;;;;;;;;;17.10;48.16;100717.03;1085100;54;19947;-74
2022/07/17 05:55:20;;;;;;;;;;;;;;;17.09;48.42;100714.50;1085480;54;19947;-76
2022/07/17 05:56:24;;;;;;;;;;;;;;;17.08;48.75;100718.22;1085579;54;20018;-75
2022/07/17 05:57:25;;;;;;;;;;;;;;;17.12;48.34;100720.41;1085713;54;19950;-75
2022/07/17 05:58:29;;;;;;;;;;;;;;;17.16;48.55;100720.91;1085589;54;19946;-77
2022/07/17 05:59:30;;;;;;;;;;;;;;;17.28;48.11;100721.38;1085624;54;19946;-79
2022/07/17 06:00:34;;;;;;;;;;;;;;;17.36;47.93;100723.22;1085377;54;19950;-78
2022/07/17 06:01:36;;;;;;;;;;;;;;;17.46;47.79;100724.69;1085448;54;19981;-75
2022/07/17 06:02:39;;;;;;;;;;;;;;;17.54;47.70;100720.28;1085704;54;20002;-74
2022/07/17 06:03:43;;;;;;;;;;;;;;;17.63;47.59;100732.75;1086051;54;19970;-76
2022/07/17 06:04:47;;;;;;;;;;;;;;;17.70;47.48;100728.34;1086169;54;20443;-80
2022/07/17 06:05:48;;;;;;;;;;;;;;;17.76;47.13;100721.38;1086341;54;19965;-77
2022/07/17 06:06:52;;;;;;;;;;;;;;;17.82;47.39;100728.81;1086420;54;20429;-76
2022/07/17 06:07:53;;;;;;;;;;;;;;;17.82;47.29;100723.38;1087158;54;19941;-75
2022/07/17 06:08:58;;;;;;;;;;;;;;;17.86;47.51;100724.72;1087307;47;19973;-77
2022/07/17 06:09:59;;;;;;;;;;;;;;;17.88;47.71;100727.25;1086612;54;19954;-74
2022/07/17 06:11:03;;;;;;;;;;;;;;;17.88;47.47;100729.97;1086199;54;20094;-73
2022/07/17 06:12:04;;;;;;;;;;;;;;;17.91;47.54;100733.16;1086113;54;19947;-80
2022/07/17 06:13:08;;;;;;;;;;;;;;;17.95;47.31;100740.94;1087118;39;20555;-77
2022/07/17 06:14:09;;;;;;;;;;;;;;;17.97;47.25;100726.22;1086142;54;19939;-75
2022/07/17 06:15:14;;;;;;;;;;;;;;;17.96;47.29;100729.06;1086156;54;19946;-76
2022/07/17 06:16:15;;;;;;;;;;;;;;;17.98;47.42;100727.91;1086435;54;19947;-74
2022/07/17 06:17:19;;;;;;;;;;;;;;;17.97;47.34;100726.22;1086192;54;20580;-78